createdAt,value
2022-09-04T00:00:18.880Z,16.60
2022-09-04T00:03:17.348Z,16.60
2022-09-04T00:05:47.092Z,16.50
2022-09-04T00:08:35.949Z,16.50
2022-09-04T00:11:05.990Z,16.50
2022-09-04T00:14:08.318Z,16.50
2022-09-04T00:17:03.946Z,16.50
2022-09-04T00:19:37.058Z,16.50
2022-09-04T00:22:18.598Z,16.50
2022-09-04T00:24:56.697Z,16.40
2022-09-04T00:27:26.975Z,16.40
2022-09-04T00:30:05.215Z,16.40
2022-09-04T00:32:41.367Z,16.40
2022-09-04T00:35:33.531Z,16.40
2022-09-04T00:38:34.631Z,16.40
2022-09-04T00:41:27.779Z,16.40
2022-09-04T00:44:20.462Z,16.30
2022-09-04T00:47:09.341Z,16.20
2022-09-04T00:50:07.212Z,16.20
2022-09-04T00:52:58.324Z,16.20
2022-09-04T00:55:32.385Z,16.20
2022-09-04T00:58:24.003Z,16.20
2022-09-04T01:00:55.963Z,16.20
2022-09-04T01:03:46.616Z,16.20
2022-09-04T01:06:21.515Z,16.10
2022-09-04T01:09:18.757Z,16.10
2022-09-04T01:11:55.478Z,16.00
2022-09-04T01:14:39.256Z,16.10
2022-09-04T01:17:30.171Z,16.10
2022-09-04T01:20:06.097Z,16.10
2022-09-04T01:22:51.897Z,16.10
2022-09-04T01:25:40.433Z,16.00
2022-09-04T01:28:27.133Z,16.00
2022-09-04T01:31:22.181Z,16.00
2022-09-04T01:34:08.870Z,15.90
2022-09-04T01:37:07.915Z,15.90
2022-09-04T01:39:36.968Z,15.90
2022-09-04T01:42:18.121Z,15.90
2022-09-04T01:44:45.034Z,15.90
2022-09-04T01:47:51.995Z,15.90
2022-09-04T01:50:26.584Z,15.90
2022-09-04T01:53:05.912Z,15.90
2022-09-04T01:55:54.801Z,15.90
2022-09-04T01:59:16.160Z,15.80
2022-09-04T02:01:50.648Z,15.80
2022-09-04T02:04:23.333Z,15.80
2022-09-04T02:06:59.732Z,15.80
2022-09-04T02:10:03.092Z,15.80
2022-09-04T02:12:54.552Z,15.70
2022-09-04T02:15:55.600Z,15.70
2022-09-04T02:18:36.132Z,15.70
2022-09-04T02:21:18.326Z,15.70
2022-09-04T02:23:55.288Z,15.70
2022-09-04T02:27:01.555Z,15.70
2022-09-04T02:29:37.632Z,15.60
2022-09-04T02:32:22.409Z,15.60
2022-09-04T02:35:19.068Z,15.60
2022-09-04T02:37:48.700Z,15.50
2022-09-04T02:40:59.215Z,15.50
2022-09-04T02:43:28.808Z,15.50
2022-09-04T02:46:20.303Z,15.50
2022-09-04T02:49:13.364Z,15.50
2022-09-04T02:52:11.441Z,15.50
2022-09-04T02:54:50.400Z,15.40
2022-09-04T02:57:47.767Z,15.40
2022-09-04T03:00:21.612Z,15.40
2022-09-04T03:02:58.149Z,15.40
2022-09-04T03:05:30.166Z,15.40
2022-09-04T03:08:15.588Z,15.40
2022-09-04T03:11:16.602Z,15.40
2022-09-04T03:13:50.920Z,15.40
2022-09-04T03:16:41.295Z,15.40
2022-09-04T03:19:36.096Z,15.40
2022-09-04T03:22:20.129Z,15.40
2022-09-04T03:24:50.077Z,15.40
2022-09-04T03:27:19.006Z,15.40
2022-09-04T03:30:04.159Z,15.40
2022-09-04T03:32:31.026Z,15.40
2022-09-04T03:35:19.927Z,15.40
2022-09-04T03:38:18.523Z,15.40
2022-09-04T03:41:07.098Z,15.30
2022-09-04T03:43:55.842Z,15.30
2022-09-04T03:46:34.699Z,15.30
2022-09-04T03:49:19.112Z,15.30
2022-09-04T03:51:54.078Z,15.20
2022-09-04T03:54:38.774Z,15.20
2022-09-04T03:57:26.894Z,15.20
2022-09-04T04:00:19.856Z,15.20
2022-09-04T04:03:01.839Z,15.20
2022-09-04T04:05:36.979Z,15.20
2022-09-04T04:08:17.235Z,15.20
2022-09-04T04:10:59.335Z,15.20
2022-09-04T04:13:44.374Z,15.20
2022-09-04T04:16:32.280Z,15.10
2022-09-04T04:19:10.760Z,15.10
2022-09-04T04:22:01.641Z,15.10
2022-09-04T04:24:55.402Z,15.10
2022-09-04T04:27:46.688Z,15.00
2022-09-04T04:30:17.587Z,15.00
2022-09-04T04:32:53.821Z,15.00
2022-09-04T04:35:41.493Z,14.90
2022-09-04T04:38:18.569Z,14.90
2022-09-04T04:41:00.405Z,14.80
2022-09-04T04:43:42.352Z,14.80
2022-09-04T04:46:34.798Z,14.80
2022-09-04T04:49:23.766Z,14.70
2022-09-04T04:51:50.616Z,14.70
2022-09-04T04:54:57.055Z,14.70
2022-09-04T04:57:35.504Z,14.60
2022-09-04T05:00:09.052Z,14.60
2022-09-04T05:02:51.763Z,14.60
2022-09-04T05:05:56.603Z,14.50
2022-09-04T05:08:50.046Z,14.50
2022-09-04T05:11:45.090Z,14.50
2022-09-04T05:14:27.022Z,14.50
2022-09-04T05:17:14.806Z,14.50
2022-09-04T05:19:48.473Z,14.50
2022-09-04T05:22:42.389Z,14.50
2022-09-04T05:25:38.423Z,14.50
2022-09-04T05:28:25.904Z,14.50
2022-09-04T05:31:09.888Z,14.50
2022-09-04T05:33:59.784Z,14.50
2022-09-04T05:36:42.763Z,14.60
2022-09-04T05:39:32.393Z,14.60
2022-09-04T05:42:06.704Z,14.60
2022-09-04T05:45:04.665Z,14.60
2022-09-04T05:47:50.767Z,14.60
2022-09-04T05:50:56.197Z,14.70
2022-09-04T05:53:56.215Z,14.70
2022-09-04T05:56:53.902Z,14.70
2022-09-04T05:59:48.361Z,14.70
2022-09-04T06:02:25.538Z,14.80
2022-09-04T06:05:24.203Z,14.80
2022-09-04T06:08:05.872Z,14.80
2022-09-04T06:11:05.585Z,14.90
2022-09-04T06:13:38.329Z,15.00
2022-09-04T06:16:05.757Z,15.00
2022-09-04T06:19:17.318Z,15.10
2022-09-04T06:21:53.164Z,15.10
2022-09-04T06:24:41.574Z,15.20
2022-09-04T06:27:17.543Z,15.20
2022-09-04T06:30:08.123Z,15.30
2022-09-04T06:32:49.308Z,15.30
2022-09-04T06:35:28.483Z,15.40
2022-09-04T06:38:12.952Z,15.40
2022-09-04T06:41:04.626Z,15.50
2022-09-04T06:43:54.493Z,15.50
2022-09-04T06:46:24.347Z,15.60
2022-09-04T06:49:29.448Z,15.60
2022-09-04T06:52:29.724Z,15.70
2022-09-04T06:55:25.745Z,15.80
2022-09-04T06:58:01.782Z,15.80
2022-09-04T07:00:32.231Z,15.80
2022-09-04T07:03:27.149Z,15.90
2022-09-04T07:06:02.846Z,15.90
2022-09-04T07:08:59.883Z,16.00
2022-09-04T07:11:38.277Z,16.00
2022-09-04T07:14:45.041Z,16.10
2022-09-04T07:17:14.872Z,16.20
2022-09-04T07:20:07.850Z,16.20
2022-09-04T07:22:43.523Z,16.30
2022-09-04T07:25:44.573Z,16.40
2022-09-04T07:28:11.458Z,16.50
2022-09-04T07:31:03.679Z,16.50
2022-09-04T07:33:46.041Z,16.50
2022-09-04T07:36:29.549Z,16.60
2022-09-04T07:39:36.601Z,16.60
2022-09-04T07:42:29.471Z,16.70
2022-09-04T07:45:22.448Z,16.70
2022-09-04T07:48:16.689Z,16.80
2022-09-04T07:50:58.168Z,16.80
2022-09-04T07:53:54.170Z,16.90
2022-09-04T07:57:06.072Z,17.00
2022-09-04T08:00:25.547Z,17.00
2022-09-04T08:03:17.593Z,17.10
2022-09-04T08:06:02.780Z,17.10
2022-09-04T08:08:48.045Z,17.20
2022-09-04T08:11:28.516Z,17.20
2022-09-04T08:14:12.149Z,17.30
2022-09-04T08:17:03.784Z,17.30
2022-09-04T08:19:58.269Z,17.40
2022-09-04T08:23:04.200Z,17.50
2022-09-04T08:26:14.356Z,17.50
2022-09-04T08:29:08.125Z,17.60
2022-09-04T08:31:48.757Z,17.70
2022-09-04T08:34:25.156Z,17.80
2022-09-04T08:37:17.433Z,17.90
2022-09-04T08:40:03.110Z,17.90
2022-09-04T08:42:48.886Z,18.10
2022-09-04T08:45:24.986Z,18.10
2022-09-04T08:48:03.909Z,18.10
2022-09-04T08:50:54.186Z,18.20
2022-09-04T08:54:02.626Z,18.30
2022-09-04T08:56:37.736Z,18.30
2022-09-04T08:59:39.909Z,18.30
2022-09-04T09:02:44.347Z,18.40
2022-09-04T09:05:44.998Z,18.40
2022-09-04T09:08:33.599Z,18.50
2022-09-04T09:11:26.338Z,18.60
2022-09-04T09:14:11.668Z,18.70
2022-09-04T09:16:43.275Z,18.70
2022-09-04T09:19:24.123Z,18.80
2022-09-04T09:22:10.895Z,18.80
2022-09-04T09:25:01.094Z,18.80
2022-09-04T09:27:58.118Z,18.90
2022-09-04T09:30:25.340Z,19.00
2022-09-04T09:33:10.351Z,19.10
2022-09-04T09:35:54.742Z,19.10
2022-09-04T09:39:00.824Z,19.20
2022-09-04T09:41:53.346Z,19.20
2022-09-04T09:45:00.220Z,19.30
2022-09-04T09:48:02.496Z,19.40
2022-09-04T09:50:59.883Z,19.40
2022-09-04T09:53:46.869Z,19.50
2022-09-04T09:56:26.533Z,19.50
2022-09-04T09:58:53.477Z,19.70
2022-09-04T10:01:45.270Z,19.70
2022-09-04T10:04:22.669Z,19.80
2022-09-04T10:07:21.230Z,19.80
2022-09-04T10:10:13.135Z,19.90
2022-09-04T10:13:09.485Z,20.00
2022-09-04T10:16:08.592Z,20.00
2022-09-04T10:19:08.039Z,20.10
2022-09-04T10:22:17.511Z,20.10
2022-09-04T10:25:06.101Z,20.20
2022-09-04T10:28:27.421Z,20.30
2022-09-04T10:30:54.604Z,20.30
2022-09-04T10:33:27.059Z,20.30
2022-09-04T10:36:27.891Z,20.40
2022-09-04T10:39:39.960Z,20.40
2022-09-04T10:42:06.832Z,20.50
2022-09-04T10:44:41.458Z,20.50
2022-09-04T10:47:44.939Z,20.50
2022-09-04T10:50:23.094Z,20.70
2022-09-04T10:52:53.242Z,20.70
2022-09-04T10:55:47.934Z,20.80
2022-09-04T10:58:20.754Z,20.80
2022-09-04T11:01:04.227Z,20.80
2022-09-04T11:04:01.798Z,20.90
2022-09-04T11:06:57.733Z,21.00
2022-09-04T11:09:53.895Z,21.00
2022-09-04T11:12:40.641Z,21.10
2022-09-04T11:15:18.816Z,21.10
2022-09-04T11:18:19.214Z,21.10
2022-09-04T11:20:55.058Z,21.20
2022-09-04T11:23:43.564Z,21.30
2022-09-04T11:26:29.166Z,21.30
2022-09-04T11:29:10.926Z,21.30
2022-09-04T11:31:48.487Z,21.40
2022-09-04T11:34:33.860Z,21.40
2022-09-04T11:37:42.799Z,21.40
2022-09-04T11:40:46.714Z,21.40
2022-09-04T11:43:36.833Z,21.50
2022-09-04T11:46:30.176Z,21.50
2022-09-04T11:49:32.026Z,21.60
2022-09-04T11:52:34.324Z,21.60
2022-09-04T11:55:34.299Z,21.60
2022-09-04T11:58:20.773Z,21.60
2022-09-04T12:01:16.260Z,21.60
2022-09-04T12:04:01.656Z,21.80
2022-09-04T12:06:45.612Z,21.80
2022-09-04T12:09:51.451Z,21.90
2022-09-04T12:12:18.453Z,21.90
2022-09-04T12:15:07.431Z,22.00
2022-09-04T12:17:41.303Z,22.10
2022-09-04T12:20:24.363Z,22.10
2022-09-04T12:23:40.160Z,22.10
2022-09-04T12:26:51.529Z,22.10
2022-09-04T12:29:38.893Z,22.20
2022-09-04T12:32:37.552Z,22.20
2022-09-04T12:35:14.412Z,22.20
2022-09-04T12:38:15.821Z,22.20
2022-09-04T12:41:04.373Z,22.20
2022-09-04T12:43:38.655Z,22.20
2022-09-04T12:46:19.245Z,22.30
2022-09-04T12:49:07.244Z,22.30
2022-09-04T12:51:49.293Z,22.30
2022-09-04T12:54:43.488Z,22.30
2022-09-04T12:57:26.645Z,22.30
2022-09-04T13:00:13.797Z,22.30
2022-09-04T13:03:02.659Z,22.40
2022-09-04T13:05:52.970Z,22.40
2022-09-04T13:08:52.515Z,22.40
2022-09-04T13:11:35.006Z,22.40
2022-09-04T13:14:30.029Z,22.40
2022-09-04T13:17:05.726Z,22.50
2022-09-04T13:19:36.140Z,22.50
2022-09-04T13:22:11.655Z,22.50
2022-09-04T13:24:53.365Z,22.50
2022-09-04T13:27:57.340Z,22.50
2022-09-04T13:30:25.585Z,22.60
2022-09-04T13:33:06.294Z,22.60
2022-09-04T13:35:42.593Z,22.60
2022-09-04T13:38:18.744Z,22.60
2022-09-04T13:41:24.651Z,22.60
2022-09-04T13:44:27.989Z,22.60
2022-09-04T13:47:08.996Z,22.60
2022-09-04T13:49:56.646Z,22.60
2022-09-04T13:52:27.974Z,22.70
2022-09-04T13:54:57.862Z,22.70
2022-09-04T13:57:30.103Z,22.70
2022-09-04T14:00:05.829Z,22.70
2022-09-04T14:02:36.517Z,22.80
2022-09-04T14:05:13.381Z,22.80
2022-09-04T14:07:45.320Z,22.80
2022-09-04T14:10:33.693Z,22.80
2022-09-04T14:13:19.315Z,22.80
2022-09-04T14:16:01.890Z,22.80
2022-09-04T14:18:45.733Z,22.80
2022-09-04T14:21:48.164Z,22.90
2022-09-04T14:24:38.537Z,22.90
2022-09-04T14:27:39.558Z,22.90
2022-09-04T14:30:25.091Z,22.90
2022-09-04T14:33:37.340Z,22.90
2022-09-04T14:36:23.734Z,22.90
2022-09-04T14:39:09.622Z,22.90
2022-09-04T14:41:55.114Z,22.90
2022-09-04T14:44:44.359Z,22.80
2022-09-04T14:47:29.923Z,22.80
2022-09-04T14:50:01.276Z,22.90
2022-09-04T14:52:29.365Z,22.80
2022-09-04T14:55:00.053Z,22.90
2022-09-04T14:57:51.081Z,22.80
2022-09-04T15:00:20.711Z,22.90
2022-09-04T15:03:15.673Z,22.90
2022-09-04T15:05:59.703Z,22.90
2022-09-04T15:08:28.492Z,22.90
2022-09-04T15:12:23.335Z,22.90
2022-09-04T15:18:34.271Z,23.00
2022-09-04T15:21:12.752Z,23.00
2022-09-04T15:23:50.472Z,23.00
2022-09-04T15:26:48.664Z,23.00
2022-09-04T15:29:45.764Z,23.00
2022-09-04T15:32:23.666Z,23.00
2022-09-04T15:35:05.345Z,23.00
2022-09-04T15:37:33.498Z,22.90
2022-09-04T15:40:03.942Z,22.90
2022-09-04T15:43:01.738Z,22.90
2022-09-04T15:45:47.566Z,22.90
2022-09-04T15:48:45.069Z,22.90
2022-09-04T15:51:51.130Z,22.90
2022-09-04T15:54:30.462Z,22.90
2022-09-04T15:57:11.178Z,22.90
2022-09-04T15:59:45.700Z,22.90
2022-09-04T16:02:25.743Z,22.90
2022-09-04T16:05:03.201Z,22.90
2022-09-04T16:07:34.218Z,22.90
2022-09-04T16:10:25.709Z,22.90
2022-09-04T16:13:08.092Z,22.90
2022-09-04T16:15:43.081Z,23.00
2022-09-04T16:18:18.565Z,23.00
2022-09-04T16:20:55.995Z,22.90
2022-09-04T16:23:38.280Z,22.90
2022-09-04T16:26:19.205Z,22.90
2022-09-04T16:28:51.362Z,22.90
2022-09-04T16:31:32.005Z,22.90
2022-09-04T16:34:23.249Z,22.90
2022-09-04T16:37:11.859Z,22.90
2022-09-04T16:39:49.555Z,22.90
2022-09-04T16:42:37.124Z,22.90
2022-09-04T16:45:25.465Z,22.90
2022-09-04T16:48:43.203Z,22.90
2022-09-04T16:51:39.285Z,22.80
2022-09-04T16:54:37.242Z,22.80
2022-09-04T16:57:18.515Z,22.80
2022-09-04T16:59:51.254Z,22.80
2022-09-04T17:02:37.589Z,22.70
2022-09-04T17:05:20.158Z,22.70
2022-09-04T17:08:13.411Z,22.70
2022-09-04T17:10:51.271Z,22.60
2022-09-04T17:13:28.176Z,22.60
2022-09-04T17:15:58.645Z,22.60
2022-09-04T17:18:28.275Z,22.50
2022-09-04T17:24:54.326Z,22.50
2022-09-04T17:29:04.238Z,22.40
2022-09-04T17:29:10.938Z,22.40
2022-09-04T17:30:25.479Z,22.40
2022-09-04T17:37:17.556Z,22.30
2022-09-04T17:40:35.546Z,22.30
2022-09-04T17:40:36.611Z,22.30
2022-09-04T17:42:14.251Z,22.30
2022-09-04T17:44:57.447Z,22.20
2022-09-04T17:47:42.801Z,22.20
2022-09-04T17:50:12.578Z,22.10
2022-09-04T17:53:14.639Z,22.00
2022-09-04T17:56:13.862Z,22.00
2022-09-04T17:58:51.617Z,21.90
2022-09-04T18:01:27.472Z,21.80
2022-09-04T18:04:20.652Z,21.80
2022-09-04T18:07:35.656Z,21.80
2022-09-04T18:10:44.486Z,21.70
2022-09-04T18:13:37.936Z,21.70
2022-09-04T18:16:26.871Z,21.60
2022-09-04T18:18:57.767Z,21.50
2022-09-04T18:21:41.103Z,21.50
2022-09-04T18:24:16.076Z,21.50
2022-09-04T18:27:10.980Z,21.40
2022-09-04T18:37:11.313Z,21.40
2022-09-04T18:37:21.165Z,21.30
2022-09-04T18:37:23.205Z,21.30
2022-09-04T18:38:41.497Z,21.30
2022-09-04T18:50:20.582Z,21.20
2022-09-04T18:50:30.656Z,21.00
2022-09-04T18:50:31.620Z,21.10
2022-09-04T18:50:34.630Z,21.10
2022-09-04T18:52:59.962Z,21.00
2022-09-04T18:55:59.156Z,21.00
2022-09-04T18:58:45.784Z,20.90
2022-09-04T19:01:17.159Z,20.90
2022-09-04T19:04:19.523Z,20.80
2022-09-04T19:07:07.871Z,20.70
2022-09-04T19:09:59.977Z,20.70
2022-09-04T19:12:46.901Z,20.70
2022-09-04T19:15:27.456Z,20.70
2022-09-04T19:18:17.563Z,20.70
2022-09-04T19:20:49.216Z,20.70
2022-09-04T19:23:34.368Z,20.70
2022-09-04T19:26:10.245Z,20.50
2022-09-04T19:29:03.162Z,20.50
2022-09-04T19:31:39.274Z,20.50
2022-09-04T19:34:18.294Z,20.50
2022-09-04T19:38:22.588Z,20.50
2022-09-04T19:45:59.054Z,20.50
2022-09-04T19:45:59.607Z,20.50
2022-09-04T19:46:42.219Z,20.40
2022-09-04T19:52:23.678Z,20.40
2022-09-04T19:53:33.251Z,20.40
2022-09-04T19:55:24.767Z,20.30
2022-09-04T19:58:35.566Z,20.30
2022-09-04T20:01:15.856Z,20.30
2022-09-04T20:04:01.309Z,20.20
2022-09-04T20:06:53.452Z,20.20
2022-09-04T20:09:38.108Z,20.20
2022-09-04T20:12:25.419Z,20.20
2022-09-04T20:15:12.036Z,20.10
2022-09-04T20:18:14.213Z,20.10
2022-09-04T20:21:25.792Z,20.10
2022-09-04T20:24:10.976Z,20.00
2022-09-04T20:26:56.495Z,20.00
2022-09-04T20:29:54.984Z,20.00
2022-09-04T20:32:33.195Z,20.00
2022-09-04T20:35:32.499Z,20.00
2022-09-04T20:38:23.833Z,20.00
2022-09-04T20:41:15.548Z,19.90
2022-09-04T20:43:42.571Z,19.90
2022-09-04T20:48:43.329Z,19.90
2022-09-04T20:52:59.682Z,19.80
2022-09-04T20:53:09.454Z,19.80
2022-09-04T20:55:50.964Z,19.80
2022-09-04T21:03:14.434Z,19.70
2022-09-04T21:03:18.413Z,19.70
2022-09-04T21:05:34.371Z,19.70
2022-09-04T21:08:16.701Z,19.60
2022-09-04T21:11:04.066Z,19.70
2022-09-04T21:14:03.672Z,19.60
2022-09-04T21:16:39.800Z,19.60
2022-09-04T21:19:28.973Z,19.50
2022-09-04T21:22:32.361Z,19.50
2022-09-04T21:25:39.393Z,19.40
2022-09-04T21:28:24.880Z,19.30
2022-09-04T21:31:15.960Z,19.30
2022-09-04T21:34:13.305Z,19.30
2022-09-04T21:36:55.560Z,19.30
2022-09-04T21:39:57.714Z,19.30
2022-09-04T21:42:40.294Z,19.30
2022-09-04T21:45:16.108Z,19.20
2022-09-04T21:48:01.436Z,19.20
2022-09-04T21:50:52.581Z,19.20
2022-09-04T21:53:54.625Z,19.10
2022-09-04T22:02:32.090Z,19.10
2022-09-04T22:02:45.026Z,19.00
2022-09-04T22:03:02.590Z,19.10
2022-09-04T22:05:51.722Z,19.10
2022-09-04T22:13:30.678Z,19.00
2022-09-04T22:13:46.656Z,19.00
2022-09-04T22:14:51.845Z,18.90
2022-09-04T22:17:46.591Z,18.90
2022-09-04T22:20:51.555Z,18.90
2022-09-04T22:23:41.240Z,18.80
2022-09-04T22:26:53.411Z,18.80
2022-09-04T22:29:39.426Z,18.80
2022-09-04T22:32:22.171Z,18.80
2022-09-04T22:35:03.793Z,18.70
2022-09-04T22:37:48.973Z,18.80
2022-09-04T22:40:30.424Z,18.70
2022-09-04T22:43:06.110Z,18.80
2022-09-04T22:46:04.144Z,18.80
2022-09-04T22:49:11.866Z,18.80
2022-09-04T22:52:01.694Z,18.80
2022-09-04T22:54:47.935Z,18.80
2022-09-04T22:57:27.210Z,18.80
2022-09-04T23:00:11.124Z,18.80
2022-09-04T23:03:15.531Z,18.70
2022-09-04T23:07:20.010Z,18.80
2022-09-04T23:13:49.525Z,18.80
2022-09-04T23:13:58.766Z,18.80
2022-09-04T23:15:50.996Z,18.80
2022-09-04T23:20:39.978Z,18.80
2022-09-04T23:26:38.330Z,18.80
2022-09-04T23:26:48.241Z,18.90
2022-09-04T23:27:52.334Z,18.90
2022-09-04T23:30:25.509Z,18.80
2022-09-04T23:33:04.748Z,18.80
2022-09-04T23:35:46.796Z,18.80
2022-09-04T23:38:44.143Z,18.80
2022-09-04T23:41:23.429Z,18.80
2022-09-04T23:44:15.290Z,18.80
2022-09-04T23:47:10.876Z,18.90
2022-09-04T23:50:17.974Z,18.80
2022-09-04T23:53:25.103Z,18.80
2022-09-04T23:56:08.675Z,18.80
2022-09-04T23:59:22.615Z,18.90
